createdAt,value
2017-04-05T00:00:42.972Z,1008.73
2017-04-05T00:01:43.038Z,1008.71
2017-04-05T00:02:43.038Z,1008.73
2017-04-05T00:03:43.073Z,1008.66
2017-04-05T00:04:43.111Z,1008.66
2017-04-05T00:05:43.142Z,1008.62
2017-04-05T00:06:43.178Z,1008.6
2017-04-05T00:07:43.215Z,1008.59
2017-04-05T00:08:43.249Z,1008.57
2017-04-05T00:09:43.283Z,1008.52
2017-04-05T00:10:43.317Z,1008.48
2017-04-05T00:11:43.351Z,1008.5
2017-04-05T00:12:43.386Z,1008.46
2017-04-05T00:13:43.419Z,1008.44
2017-04-05T00:14:43.455Z,1008.42
2017-04-05T00:15:43.491Z,1008.41
2017-04-05T00:16:43.526Z,1008.41
2017-04-05T00:17:43.557Z,1008.45
2017-04-05T00:18:43.592Z,1008.44
2017-04-05T00:19:43.629Z,1008.39
2017-04-05T00:20:43.662Z,1008.41
2017-04-05T00:21:43.697Z,1008.44
2017-04-05T00:22:43.732Z,1008.39
2017-04-05T00:23:43.769Z,1008.39
2017-04-05T00:24:43.799Z,1008.37
2017-04-05T00:25:43.834Z,1008.34
2017-04-05T00:26:43.873Z,1008.33
2017-04-05T00:27:43.904Z,1008.28
2017-04-05T00:28:43.939Z,1008.24
2017-04-05T00:29:43.972Z,1008.18
2017-04-05T00:30:44.008Z,1008.22
2017-04-05T00:31:44.045Z,1008.14
2017-04-05T00:32:44.077Z,1008.15
2017-04-05T00:33:44.110Z,1008.15
2017-04-05T00:34:44.148Z,1008.15
2017-04-05T00:35:44.181Z,1008.14
2017-04-05T00:36:44.214Z,1008.15
2017-04-05T00:37:44.248Z,1008.12
2017-04-05T00:38:44.283Z,1008.13
2017-04-05T00:39:44.319Z,1008.1
2017-04-05T00:40:44.350Z,1008.1
2017-04-05T00:41:44.388Z,1008.1
2017-04-05T00:42:44.422Z,1008.07
2017-04-05T00:43:44.457Z,1008.05
2017-04-05T00:44:44.490Z,1008.04
2017-04-05T00:45:44.527Z,1008.09
2017-04-05T00:46:44.558Z,1008.09
2017-04-05T00:47:44.593Z,1008.07
2017-04-05T00:48:44.630Z,1008.1
2017-04-05T00:49:44.664Z,1008.09
2017-04-05T00:50:44.699Z,1008.09
2017-04-05T00:51:44.730Z,1008.13
2017-04-05T00:52:44.765Z,1008.08
2017-04-05T00:53:44.800Z,1008.1
2017-04-05T00:54:44.833Z,1008.08
2017-04-05T00:55:44.868Z,1008.03
2017-04-05T00:56:44.904Z,1008.04
2017-04-05T00:57:44.936Z,1008.07
2017-04-05T00:58:44.974Z,1008.08
2017-04-05T00:59:45.008Z,1008.12
2017-04-05T01:00:45.063Z,1008.13
2017-04-05T01:01:45.074Z,1008.12
2017-04-05T01:02:45.108Z,1008.09
2017-04-05T01:03:45.145Z,1008.1
2017-04-05T01:04:45.178Z,1008.1
2017-04-05T01:05:45.214Z,1008.08
2017-04-05T01:06:45.246Z,1008.11
2017-04-05T01:07:45.281Z,1008.11
2017-04-05T01:08:45.333Z,1008.07
2017-04-05T01:09:45.351Z,1008.08
2017-04-05T01:10:45.386Z,1008.05
2017-04-05T01:11:45.420Z,1008.06
2017-04-05T01:12:45.452Z,1008.01
2017-04-05T01:13:45.489Z,1008.03
2017-04-05T01:14:45.522Z,1008
2017-04-05T01:15:45.558Z,1008.02
2017-04-05T01:16:45.593Z,1007.98
2017-04-05T01:17:45.628Z,1007.98
2017-04-05T01:18:45.659Z,1007.99
2017-04-05T01:19:45.693Z,1008.01
2017-04-05T01:20:45.731Z,1008.02
2017-04-05T01:21:45.764Z,1008.01
2017-04-05T01:22:45.801Z,1008.03
2017-04-05T01:23:45.831Z,1007.98
2017-04-05T01:24:45.867Z,1007.99
2017-04-05T01:25:45.904Z,1007.98
2017-04-05T01:26:45.936Z,1008
2017-04-05T01:27:45.969Z,1007.99
2017-04-05T01:28:46.006Z,1008.01
2017-04-05T01:29:46.039Z,1007.95
2017-04-05T01:30:46.077Z,1007.97
2017-04-05T01:31:46.117Z,1007.96
2017-04-05T01:32:46.143Z,1007.95
2017-04-05T01:33:46.177Z,1007.97
2017-04-05T01:34:46.212Z,1008.01
2017-04-05T01:35:46.247Z,1007.98
2017-04-05T01:36:46.280Z,1008.02
2017-04-05T01:37:46.314Z,1008
2017-04-05T01:38:46.349Z,1007.96
2017-04-05T01:39:46.383Z,1008
2017-04-05T01:40:46.419Z,1007.99
2017-04-05T01:41:46.451Z,1007.95
2017-04-05T01:42:46.487Z,1007.96
2017-04-05T01:43:46.523Z,1007.94
2017-04-05T01:44:46.554Z,1007.94
2017-04-05T01:45:46.591Z,1007.91
2017-04-05T01:46:46.623Z,1007.93
2017-04-05T01:47:46.659Z,1007.95
2017-04-05T01:48:46.692Z,1007.92
2017-04-05T01:49:46.728Z,1007.94
2017-04-05T01:50:46.764Z,1007.94
2017-04-05T01:51:46.795Z,1007.92
2017-04-05T01:52:46.833Z,1007.9
2017-04-05T01:53:46.864Z,1007.82
2017-04-05T01:54:46.902Z,1007.83
2017-04-05T01:55:46.933Z,1007.8
2017-04-05T01:56:46.970Z,1007.81
2017-04-05T01:57:47.004Z,1007.83
2017-04-05T01:58:47.037Z,1007.83
2017-04-05T01:59:47.071Z,1007.82
2017-04-05T02:00:47.105Z,1007.83
2017-04-05T02:01:47.141Z,1007.82
2017-04-05T02:02:47.175Z,1007.85
2017-04-05T02:03:47.211Z,1007.86
2017-04-05T02:04:47.244Z,1007.87
2017-04-05T02:05:47.277Z,1007.83
2017-04-05T02:06:47.313Z,1007.82
2017-04-05T02:07:47.349Z,1007.78
2017-04-05T02:08:47.382Z,1007.79
2017-04-05T02:09:47.416Z,1007.76
2017-04-05T02:10:47.450Z,1007.78
2017-04-05T02:11:47.486Z,1007.72
2017-04-05T02:12:47.521Z,1007.74
2017-04-05T02:13:47.554Z,1007.74
2017-04-05T02:14:47.592Z,1007.73
2017-04-05T02:15:47.623Z,1007.7
2017-04-05T02:16:47.657Z,1007.7
2017-04-05T02:17:47.692Z,1007.68
2017-04-05T02:18:47.729Z,1007.69
2017-04-05T02:19:47.765Z,1007.7
2017-04-05T02:20:47.797Z,1007.71
2017-04-05T02:21:47.830Z,1007.68
2017-04-05T02:22:47.865Z,1007.66
2017-04-05T02:23:47.902Z,1007.65
2017-04-05T02:24:47.935Z,1007.69
2017-04-05T02:25:47.972Z,1007.63
2017-04-05T02:26:48.006Z,1007.63
2017-04-05T02:27:48.040Z,1007.63
2017-04-05T02:28:48.072Z,1007.64
2017-04-05T02:29:48.112Z,1007.64
2017-04-05T02:30:48.145Z,1007.66
2017-04-05T02:31:48.178Z,1007.63
2017-04-05T02:32:48.212Z,1007.62
2017-04-05T02:33:48.248Z,1007.59
2017-04-05T02:34:48.281Z,1007.59
2017-04-05T02:35:48.316Z,1007.6
2017-04-05T02:36:48.352Z,1007.6
2017-04-05T02:37:48.386Z,1007.63
2017-04-05T02:38:48.418Z,1007.59
2017-04-05T02:39:48.452Z,1007.63
2017-04-05T02:40:48.487Z,1007.61
2017-04-05T02:41:48.523Z,1007.6
2017-04-05T02:42:48.558Z,1007.68
2017-04-05T02:43:48.591Z,1007.65
2017-04-05T02:44:48.629Z,1007.7
2017-04-05T02:45:48.662Z,1007.7
2017-04-05T02:46:48.697Z,1007.68
2017-04-05T02:47:48.731Z,1007.7
2017-04-05T02:48:48.765Z,1007.72
2017-04-05T02:49:48.801Z,1007.76
2017-04-05T02:50:48.833Z,1007.76
2017-04-05T02:51:48.869Z,1007.74
2017-04-05T02:52:48.905Z,1007.75
2017-04-05T02:53:48.940Z,1007.73
2017-04-05T02:54:48.973Z,1007.75
2017-04-05T02:55:49.007Z,1007.72
2017-04-05T02:56:49.041Z,1007.73
2017-04-05T02:57:49.075Z,1007.74
2017-04-05T02:58:49.111Z,1007.75
2017-04-05T02:59:49.149Z,1007.74
2017-04-05T03:00:49.180Z,1007.71
2017-04-05T03:01:49.216Z,1007.69
2017-04-05T03:02:49.250Z,1007.69
2017-04-05T03:03:49.284Z,1007.7
2017-04-05T03:04:49.317Z,1007.7
2017-04-05T03:05:49.351Z,1007.71
2017-04-05T03:06:49.387Z,1007.72
2017-04-05T03:07:49.421Z,1007.75
2017-04-05T03:08:49.456Z,1007.76
2017-04-05T03:09:49.492Z,1007.75
2017-04-05T03:10:49.524Z,1007.72
2017-04-05T03:11:49.561Z,1007.72
2017-04-05T03:12:49.596Z,1007.74
2017-04-05T03:13:49.628Z,1007.76
2017-04-05T03:14:49.664Z,1007.77
2017-04-05T03:15:49.699Z,1007.77
2017-04-05T03:16:49.731Z,1007.75
2017-04-05T03:17:49.766Z,1007.77
2017-04-05T03:18:49.803Z,1007.79
2017-04-05T03:19:49.837Z,1007.79
2017-04-05T03:20:49.870Z,1007.77
2017-04-05T03:21:49.908Z,1007.77
2017-04-05T03:22:49.941Z,1007.74
2017-04-05T03:23:49.976Z,1007.73
2017-04-05T03:24:50.010Z,1007.77
2017-04-05T03:25:50.046Z,1007.74
2017-04-05T03:26:50.078Z,1007.8
2017-04-05T03:27:50.114Z,1007.84
2017-04-05T03:28:50.149Z,1007.83
2017-04-05T03:29:50.182Z,1007.87
2017-04-05T03:30:50.218Z,1007.86
2017-04-05T03:31:50.253Z,1007.88
2017-04-05T03:32:50.287Z,1007.85
2017-04-05T03:33:50.322Z,1007.86
2017-04-05T03:34:50.357Z,1007.86
2017-04-05T03:35:50.392Z,1007.85
2017-04-05T03:36:50.426Z,1007.78
2017-04-05T03:37:50.459Z,1007.78
2017-04-05T03:38:50.495Z,1007.76
2017-04-05T03:39:50.528Z,1007.7
2017-04-05T03:40:50.563Z,1007.72
2017-04-05T03:41:50.599Z,1007.71
2017-04-05T03:42:50.632Z,1007.68
2017-04-05T03:43:50.669Z,1007.71
2017-04-05T03:44:50.701Z,1007.74
2017-04-05T03:45:50.736Z,1007.75
2017-04-05T03:46:50.771Z,1007.72
2017-04-05T03:47:50.805Z,1007.76
2017-04-05T03:48:50.840Z,1007.79
2017-04-05T03:49:50.879Z,1007.82
2017-04-05T03:50:50.912Z,1007.78
2017-04-05T03:51:50.945Z,1007.79
2017-04-05T03:52:50.979Z,1007.77
2017-04-05T03:53:51.014Z,1007.77
2017-04-05T03:54:51.052Z,1007.74
2017-04-05T03:55:51.083Z,1007.75
2017-04-05T03:56:51.120Z,1007.7
2017-04-05T03:57:51.153Z,1007.69
2017-04-05T03:58:51.189Z,1007.66
2017-04-05T03:59:51.222Z,1007.63
2017-04-05T04:00:51.258Z,1007.6
2017-04-05T04:01:51.291Z,1007.62
2017-04-05T04:02:51.326Z,1007.64
2017-04-05T04:03:51.363Z,1007.61
2017-04-05T04:04:51.395Z,1007.61
2017-04-05T04:05:51.432Z,1007.61
2017-04-05T04:06:51.467Z,1007.59
2017-04-05T04:07:51.500Z,1007.61
2017-04-05T04:08:51.534Z,1007.56
2017-04-05T04:09:51.569Z,1007.57
2017-04-05T04:10:51.605Z,1007.55
2017-04-05T04:11:51.640Z,1007.55
2017-04-05T04:12:51.674Z,1007.48
2017-04-05T04:13:51.707Z,1007.56
2017-04-05T04:14:51.741Z,1007.57
2017-04-05T04:15:51.778Z,1007.58
2017-04-05T04:16:51.812Z,1007.58
2017-04-05T04:17:51.845Z,1007.66
2017-04-05T04:18:51.879Z,1007.56
2017-04-05T04:19:51.917Z,1007.58
2017-04-05T04:20:51.949Z,1007.55
2017-04-05T04:21:51.986Z,1007.57
2017-04-05T04:22:52.017Z,1007.58
2017-04-05T04:23:52.056Z,1007.57
2017-04-05T04:24:52.089Z,1007.56
2017-04-05T04:25:52.124Z,1007.59
2017-04-05T04:26:52.158Z,1007.55
2017-04-05T04:27:52.192Z,1007.58
2017-04-05T04:28:52.227Z,1007.55
2017-04-05T04:29:52.259Z,1007.49
2017-04-05T04:30:52.294Z,1007.54
2017-04-05T04:31:52.329Z,1007.53
2017-04-05T04:32:52.365Z,1007.51
2017-04-05T04:33:52.399Z,1007.55
2017-04-05T04:34:52.433Z,1007.53
2017-04-05T04:35:52.467Z,1007.56
2017-04-05T04:36:52.501Z,1007.58
2017-04-05T04:37:52.537Z,1007.59
2017-04-05T04:38:52.573Z,1007.61
2017-04-05T04:39:52.606Z,1007.61
2017-04-05T04:40:52.640Z,1007.6
2017-04-05T04:41:52.674Z,1007.58
2017-04-05T04:42:52.709Z,1007.6
2017-04-05T04:43:52.743Z,1007.6
2017-04-05T04:44:52.777Z,1007.58
2017-04-05T04:45:52.814Z,1007.55
2017-04-05T04:46:52.847Z,1007.57
2017-04-05T04:47:52.880Z,1007.52
2017-04-05T04:48:52.915Z,1007.5
2017-04-05T04:49:52.951Z,1007.49
2017-04-05T04:50:52.987Z,1007.52
2017-04-05T04:51:53.018Z,1007.49
2017-04-05T04:52:53.055Z,1007.45
2017-04-05T04:53:53.090Z,1007.49
2017-04-05T04:54:53.122Z,1007.46
2017-04-05T04:55:53.157Z,1007.49
2017-04-05T04:56:53.191Z,1007.47
2017-04-05T04:57:53.227Z,1007.49
2017-04-05T04:58:53.260Z,1007.44
2017-04-05T04:59:53.297Z,1007.47
2017-04-05T05:00:53.333Z,1007.5
2017-04-05T05:01:53.367Z,1007.48
2017-04-05T05:02:53.401Z,1007.45
2017-04-05T05:03:53.437Z,1007.49
2017-04-05T05:04:53.469Z,1007.48
2017-04-05T05:05:53.504Z,1007.49
2017-04-05T05:06:53.537Z,1007.52
2017-04-05T05:07:53.572Z,1007.54
2017-04-05T05:08:53.608Z,1007.56
2017-04-05T05:09:53.644Z,1007.59
2017-04-05T05:10:53.738Z,1007.63
2017-04-05T05:11:53.712Z,1007.58
2017-04-05T05:12:53.747Z,1007.62
2017-04-05T05:13:53.783Z,1007.53
2017-04-05T05:14:53.818Z,1007.61
2017-04-05T05:15:53.851Z,1007.57
2017-04-05T05:16:53.886Z,1007.54
2017-04-05T05:17:53.921Z,1007.53
2017-04-05T05:18:53.969Z,1007.52
2017-04-05T05:19:53.994Z,1007.57
2017-04-05T05:20:54.024Z,1007.51
2017-04-05T05:21:54.060Z,1007.51
2017-04-05T05:22:54.094Z,1007.52
2017-04-05T05:23:54.131Z,1007.53
2017-04-05T05:24:54.164Z,1007.52
2017-04-05T05:25:54.198Z,1007.55
2017-04-05T05:26:54.238Z,1007.51
2017-04-05T05:27:54.270Z,1007.52
2017-04-05T05:28:54.330Z,1007.44
2017-04-05T05:29:54.341Z,1007.52
2017-04-05T05:30:54.376Z,1007.52
2017-04-05T05:31:54.410Z,1007.52
2017-04-05T05:32:54.443Z,1007.49
2017-04-05T05:33:54.479Z,1007.48
2017-04-05T05:34:54.513Z,1007.47
2017-04-05T05:35:54.548Z,1007.47
2017-04-05T05:36:54.586Z,1007.5
2017-04-05T05:37:54.621Z,1007.49
2017-04-05T05:38:54.654Z,1007.47
2017-04-05T05:39:54.688Z,1007.49
2017-04-05T05:40:54.725Z,1007.48
2017-04-05T05:41:54.758Z,1007.49
2017-04-05T05:42:54.792Z,1007.53
2017-04-05T05:43:54.829Z,1007.55
2017-04-05T05:44:54.864Z,1007.57
2017-04-05T05:45:54.901Z,1007.57
2017-04-05T05:46:54.933Z,1007.53
2017-04-05T05:47:54.968Z,1007.51
2017-04-05T05:48:55.003Z,1007.51
2017-04-05T05:49:55.038Z,1007.5
2017-04-05T05:50:55.073Z,1007.45
2017-04-05T05:51:55.109Z,1007.49
2017-04-05T05:52:55.145Z,1007.5
2017-04-05T05:53:55.178Z,1007.48
2017-04-05T05:54:55.215Z,1007.51
2017-04-05T05:55:55.252Z,1007.53
2017-04-05T05:56:55.288Z,1007.49
2017-04-05T05:57:55.321Z,1007.49
2017-04-05T05:58:55.357Z,1007.46
2017-04-05T05:59:55.393Z,1007.44
2017-04-05T06:00:55.428Z,1007.42
2017-04-05T06:01:55.461Z,1007.43
2017-04-05T06:02:55.497Z,1007.43
2017-04-05T06:03:55.533Z,1007.43
2017-04-05T06:04:55.568Z,1007.42
2017-04-05T06:05:55.603Z,1007.45
2017-04-05T06:06:55.640Z,1007.42
2017-04-05T06:07:55.678Z,1007.42
2017-04-05T06:08:55.715Z,1007.41
2017-04-05T06:09:55.744Z,1007.44
2017-04-05T06:10:55.779Z,1007.41
2017-04-05T06:11:55.813Z,1007.42
2017-04-05T06:12:55.850Z,1007.45
2017-04-05T06:13:55.886Z,1007.45
2017-04-05T06:14:55.920Z,1007.41
2017-04-05T06:15:55.957Z,1007.45
2017-04-05T06:16:55.991Z,1007.44
2017-04-05T06:17:56.026Z,1007.47
2017-04-05T06:18:56.062Z,1007.5
2017-04-05T06:19:56.099Z,1007.51
2017-04-05T06:20:56.133Z,1007.48
2017-04-05T06:21:56.173Z,1007.51
2017-04-05T06:22:56.215Z,1007.52
2017-04-05T06:23:56.243Z,1007.54
2017-04-05T06:24:56.278Z,1007.55
2017-04-05T06:25:56.312Z,1007.54
2017-04-05T06:26:56.347Z,1007.55
2017-04-05T06:27:56.386Z,1007.57
2017-04-05T06:28:56.420Z,1007.55
2017-04-05T06:29:56.457Z,1007.53
2017-04-05T06:30:56.492Z,1007.47
2017-04-05T06:31:56.526Z,1007.45
2017-04-05T06:32:56.563Z,1007.47
2017-04-05T06:33:56.597Z,1007.48
2017-04-05T06:34:56.660Z,1007.47
2017-04-05T06:35:56.670Z,1007.5
2017-04-05T06:36:56.708Z,1007.48
2017-04-05T06:37:56.741Z,1007.46
2017-04-05T06:38:56.776Z,1007.5
2017-04-05T06:39:56.813Z,1007.47
2017-04-05T06:40:56.852Z,1007.46
2017-04-05T06:41:56.886Z,1007.47
2017-04-05T06:42:56.920Z,1007.53
2017-04-05T06:43:56.958Z,1007.54
2017-04-05T06:44:56.992Z,1007.57
2017-04-05T06:45:57.031Z,1007.53
2017-04-05T06:46:57.066Z,1007.54
2017-04-05T06:47:57.102Z,1007.58
2017-04-05T06:48:57.143Z,1007.52
2017-04-05T06:49:57.173Z,1007.58
2017-04-05T06:50:57.210Z,1007.54
2017-04-05T06:51:57.246Z,1007.53
2017-04-05T06:52:57.285Z,1007.53
2017-04-05T06:53:57.321Z,1007.54
2017-04-05T06:54:57.355Z,1007.52
2017-04-05T06:55:57.389Z,1007.49
2017-04-05T06:56:57.425Z,1007.49
2017-04-05T06:57:57.460Z,1007.43
2017-04-05T06:58:57.497Z,1007.48
2017-04-05T06:59:57.535Z,1007.45
2017-04-05T07:00:57.570Z,1007.45
2017-04-05T07:01:57.607Z,1007.47
2017-04-05T07:02:57.641Z,1007.49
2017-04-05T07:03:57.681Z,1007.51
2017-04-05T07:04:57.717Z,1007.55
2017-04-05T07:05:57.752Z,1007.53
2017-04-05T07:06:57.787Z,1007.59
2017-04-05T07:07:57.822Z,1007.6
2017-04-05T07:08:57.860Z,1007.59
2017-04-05T07:09:57.897Z,1007.61
2017-04-05T07:10:57.929Z,1007.6
2017-04-05T07:11:57.967Z,1007.59
2017-04-05T07:12:58.002Z,1007.54
2017-04-05T07:13:58.040Z,1007.55
2017-04-05T07:14:58.075Z,1007.56
2017-04-05T07:15:58.117Z,1007.56
2017-04-05T07:16:58.146Z,1007.52
2017-04-05T07:17:58.183Z,1007.5
2017-04-05T07:18:58.221Z,1007.48
2017-04-05T07:19:58.257Z,1007.44
2017-04-05T07:20:58.293Z,1007.49
2017-04-05T07:21:58.328Z,1007.43
2017-04-05T07:22:58.555Z,1007.43
2017-04-05T07:23:58.402Z,1007.41
2017-04-05T07:24:58.436Z,1007.48
2017-04-05T07:25:58.476Z,1007.49
2017-04-05T07:26:58.513Z,1007.52
2017-04-05T07:27:58.551Z,1007.48
2017-04-05T07:28:58.584Z,1007.49
2017-04-05T07:29:58.623Z,1007.51
2017-04-05T07:30:58.662Z,1007.5
2017-04-05T07:31:58.695Z,1007.49
2017-04-05T07:32:58.731Z,1007.54
2017-04-05T07:33:58.767Z,1007.51
2017-04-05T07:34:58.824Z,1007.48
2017-04-05T07:35:58.843Z,1007.51
2017-04-05T07:36:58.880Z,1007.5
2017-04-05T07:37:59.000Z,1007.47
2017-04-05T07:38:58.955Z,1007.49
2017-04-05T07:39:59.014Z,1007.45
2017-04-05T07:40:59.029Z,1007.45
2017-04-05T07:41:59.067Z,1007.47
2017-04-05T07:42:59.108Z,1007.44
2017-04-05T07:43:59.142Z,1007.45
2017-04-05T07:44:59.181Z,1007.39
2017-04-05T07:45:59.220Z,1007.44
2017-04-05T07:46:59.257Z,1007.45
2017-04-05T07:47:59.294Z,1007.4
2017-04-05T07:48:59.333Z,1007.41
2017-04-05T07:49:59.372Z,1007.46
2017-04-05T07:50:59.408Z,1007.45
2017-04-05T07:51:59.446Z,1007.46
2017-04-05T07:52:59.485Z,1007.55
2017-04-05T07:53:59.523Z,1007.51
2017-04-05T07:54:59.557Z,1007.53
2017-04-05T07:55:59.635Z,1007.54
2017-04-05T07:56:59.635Z,1007.56
2017-04-05T07:58:00.586Z,1007.55
2017-04-05T07:58:59.706Z,1007.56
2017-04-05T07:59:59.747Z,1007.56
2017-04-05T08:00:59.786Z,1007.53
2017-04-05T08:01:59.819Z,1007.54
2017-04-05T08:02:59.861Z,1007.54
2017-04-05T08:03:59.897Z,1007.5
2017-04-05T08:04:59.936Z,1007.55
2017-04-05T08:05:59.978Z,1007.55
2017-04-05T08:07:00.013Z,1007.42
2017-04-05T08:08:00.053Z,1007.45
2017-04-05T08:09:00.082Z,1007.51
2017-04-05T08:10:00.126Z,1007.5
2017-04-05T08:11:00.158Z,1007.48
2017-04-05T08:12:00.220Z,1007.51
2017-04-05T08:13:00.236Z,1007.45
2017-04-05T08:14:00.271Z,1007.5
2017-04-05T08:15:00.310Z,1007.5
2017-04-05T08:16:00.347Z,1007.49
2017-04-05T08:17:00.387Z,1007.51
2017-04-05T08:18:00.425Z,1007.51
2017-04-05T08:19:00.468Z,1007.52
2017-04-05T08:20:00.500Z,1007.54
2017-04-05T08:21:00.539Z,1007.49
2017-04-05T08:22:00.578Z,1007.52
2017-04-05T08:23:00.614Z,1007.48
2017-04-05T08:24:00.655Z,1007.49
2017-04-05T08:25:00.708Z,1007.43
2017-04-05T08:26:00.734Z,1007.41
2017-04-05T08:27:00.772Z,1007.44
2017-04-05T08:28:00.846Z,1007.43
2017-04-05T08:29:00.849Z,1007.39
2017-04-05T08:30:00.888Z,1007.4
2017-04-05T08:31:00.924Z,1007.37
2017-04-05T08:32:00.966Z,1007.37
2017-04-05T08:33:01.218Z,1007.4
2017-04-05T08:34:01.044Z,1007.4
2017-04-05T08:35:01.088Z,1007.35
2017-04-05T08:36:01.123Z,1007.34
2017-04-05T08:37:01.210Z,1007.33
2017-04-05T08:38:01.204Z,1007.31
2017-04-05T08:39:01.243Z,1007.32
2017-04-05T08:40:01.283Z,1007.31
2017-04-05T08:41:01.324Z,1007.31
2017-04-05T08:42:01.364Z,1007.31
2017-04-05T08:43:01.402Z,1007.34
2017-04-05T08:44:01.442Z,1007.36
2017-04-05T08:45:01.481Z,1007.4
2017-04-05T08:46:01.522Z,1007.43
2017-04-05T08:47:01.560Z,1007.47
2017-04-05T08:48:01.602Z,1007.46
2017-04-05T08:49:01.642Z,1007.44
2017-04-05T08:50:01.687Z,1007.43
2017-04-05T08:51:01.719Z,1007.44
2017-04-05T08:52:01.760Z,1007.43
2017-04-05T08:53:01.798Z,1007.44
2017-04-05T08:54:01.840Z,1007.44
2017-04-05T08:55:01.879Z,1007.38
2017-04-05T08:56:01.921Z,1007.38
2017-04-05T08:57:01.955Z,1007.42
2017-04-05T08:58:01.996Z,1007.41
2017-04-05T08:59:02.034Z,1007.4
2017-04-05T09:00:02.074Z,1007.4
2017-04-05T09:01:02.841Z,1007.31
2017-04-05T09:02:02.152Z,1007.25
2017-04-05T09:03:02.193Z,1007.32
2017-04-05T09:04:02.273Z,1007.32
2017-04-05T09:05:02.270Z,1007.3
2017-04-05T09:06:02.312Z,1007.26
2017-04-05T09:07:02.351Z,1007.29
2017-04-05T09:08:02.388Z,1007.29
2017-04-05T09:09:02.430Z,1007.31
2017-04-05T09:10:02.471Z,1007.32
2017-04-05T09:11:02.507Z,1007.27
2017-04-05T09:12:02.546Z,1007.32
2017-04-05T09:13:02.586Z,1007.25
2017-04-05T09:14:02.627Z,1007.23
2017-04-05T09:15:02.668Z,1007.25
2017-04-05T09:16:02.708Z,1007.27
2017-04-05T09:17:02.747Z,1007.25
2017-04-05T09:18:02.800Z,1007.24
2017-04-05T09:19:02.828Z,1007.16
2017-04-05T09:20:02.871Z,1007.18
2017-04-05T09:21:02.912Z,1007.24
2017-04-05T09:22:02.956Z,1007.19
2017-04-05T09:23:02.998Z,1007.22
2017-04-05T09:24:03.039Z,1007.26
2017-04-05T09:25:03.082Z,1007.23
2017-04-05T09:26:03.124Z,1007.24
2017-04-05T09:27:03.169Z,1007.25
2017-04-05T09:28:03.213Z,1007.3
2017-04-05T09:29:03.491Z,1007.27
2017-04-05T09:30:03.309Z,1007.27
2017-04-05T09:31:03.338Z,1007.25
2017-04-05T09:32:03.381Z,1007.27
2017-04-05T09:33:03.422Z,1007.27
2017-04-05T09:34:03.464Z,1007.28
2017-04-05T09:35:03.510Z,1007.32
2017-04-05T09:36:03.549Z,1007.35
2017-04-05T09:37:03.597Z,1007.28
2017-04-05T09:38:03.635Z,1007.28
2017-04-05T09:39:03.676Z,1007.31
2017-04-05T09:40:03.717Z,1007.21
2017-04-05T09:41:03.759Z,1007.21
2017-04-05T09:42:03.802Z,1007.25
2017-04-05T09:43:03.867Z,1007.26
2017-04-05T09:44:03.880Z,1007.27
2017-04-05T09:45:03.944Z,1007.31
2017-04-05T09:46:03.962Z,1007.22
2017-04-05T09:47:04.013Z,1007.19
2017-04-05T09:48:04.043Z,1007.18
2017-04-05T09:49:04.087Z,1007.19
2017-04-05T09:50:04.154Z,1007.15
2017-04-05T09:51:04.168Z,1007.13
2017-04-05T09:52:04.209Z,1007.14
2017-04-05T09:53:04.251Z,1007.11
2017-04-05T09:54:04.293Z,1007.11
2017-04-05T09:55:04.334Z,1007.04
2017-04-05T09:56:04.385Z,1007.02
2017-04-05T09:57:04.421Z,1007.02
2017-04-05T09:58:04.460Z,1007.08
2017-04-05T09:59:04.503Z,1007.06
2017-04-05T10:00:04.561Z,1007.08
2017-04-05T10:01:04.589Z,1007.04
2017-04-05T10:02:04.629Z,1006.98
2017-04-05T10:03:04.670Z,1007.06
2017-04-05T10:04:04.712Z,1007.04
2017-04-05T10:05:04.817Z,1006.96
2017-04-05T10:06:04.797Z,1006.96
2017-04-05T10:07:04.839Z,1006.95
2017-04-05T10:08:04.882Z,1006.95
2017-04-05T10:09:04.924Z,1007.02
2017-04-05T10:10:04.989Z,1006.95
2017-04-05T10:11:05.011Z,1006.99
2017-04-05T10:12:05.055Z,1006.97
2017-04-05T10:13:05.098Z,1006.99
2017-04-05T10:14:05.140Z,1006.99
2017-04-05T10:15:05.184Z,1006.96
2017-04-05T10:16:05.228Z,1006.94
2017-04-05T10:17:05.330Z,1006.99
2017-04-05T10:18:05.340Z,1007.04
2017-04-05T10:19:05.357Z,1006.98
2017-04-05T10:20:05.401Z,1006.91
2017-04-05T10:21:05.443Z,1006.94
2017-04-05T10:22:05.488Z,1006.91
2017-04-05T10:23:05.529Z,1006.91
2017-04-05T10:24:05.574Z,1006.88
2017-04-05T10:25:05.618Z,1006.86
2017-04-05T10:26:05.659Z,1006.83
2017-04-05T10:27:05.704Z,1006.78
2017-04-05T10:28:05.765Z,1006.89
2017-04-05T10:29:05.790Z,1006.79
2017-04-05T10:30:05.833Z,1006.87
2017-04-05T10:31:05.874Z,1006.79
2017-04-05T10:32:05.919Z,1006.78
2017-04-05T10:33:05.961Z,1006.83
2017-04-05T10:34:05.999Z,1006.79
2017-04-05T10:35:06.042Z,1006.84
2017-04-05T10:36:06.086Z,1006.82
2017-04-05T10:37:06.122Z,1006.77
2017-04-05T10:38:06.164Z,1006.76
2017-04-05T10:39:06.246Z,1006.76
2017-04-05T10:40:06.248Z,1006.66
2017-04-05T10:41:06.302Z,1006.68
2017-04-05T10:42:06.331Z,1006.7
2017-04-05T10:43:06.371Z,1006.72
2017-04-05T10:44:06.410Z,1006.68
2017-04-05T10:45:06.452Z,1006.67
2017-04-05T10:46:06.580Z,1006.7
2017-04-05T10:47:06.540Z,1006.64
2017-04-05T10:48:06.574Z,1006.57
2017-04-05T10:49:06.616Z,1006.54
2017-04-05T10:50:06.657Z,1006.58
2017-04-05T10:51:06.700Z,1006.56
2017-04-05T10:52:06.740Z,1006.62
2017-04-05T10:53:06.782Z,1006.49
2017-04-05T10:54:06.821Z,1006.52
2017-04-05T10:55:06.864Z,1006.49
2017-04-05T10:56:06.913Z,1006.5
2017-04-05T10:57:06.945Z,1006.49
2017-04-05T10:58:06.987Z,1006.5
2017-04-05T10:59:07.033Z,1006.5
2017-04-05T11:00:07.115Z,1006.46
2017-04-05T11:01:07.116Z,1006.44
2017-04-05T11:02:07.159Z,1006.47
2017-04-05T11:03:07.203Z,1006.44
2017-04-05T11:04:07.246Z,1006.39
2017-04-05T11:05:07.290Z,1006.41
2017-04-05T11:06:07.332Z,1006.38
2017-04-05T11:07:07.370Z,1006.42
2017-04-05T11:08:07.411Z,1006.38
2017-04-05T11:09:07.455Z,1006.37
2017-04-05T11:10:07.500Z,1006.36
2017-04-05T11:11:07.542Z,1006.35
2017-04-05T11:12:07.577Z,1006.32
2017-04-05T11:13:07.620Z,1006.29
2017-04-05T11:14:07.661Z,1006.27
2017-04-05T11:15:07.704Z,1006.27
2017-04-05T11:16:07.744Z,1006.28
2017-04-05T11:17:07.783Z,1006.29
2017-04-05T11:18:07.824Z,1006.29
2017-04-05T11:19:07.865Z,1006.27
2017-04-05T11:20:07.907Z,1006.29
2017-04-05T11:21:07.946Z,1006.26
2017-04-05T11:22:07.989Z,1006.29
2017-04-05T11:23:08.028Z,1006.39
2017-04-05T11:24:08.072Z,1006.3
2017-04-05T11:25:08.111Z,1006.32
2017-04-05T11:26:08.152Z,1006.27
2017-04-05T11:27:08.193Z,1006.27
2017-04-05T11:28:08.236Z,1006.21
2017-04-05T11:29:08.281Z,1006.23
2017-04-05T11:30:08.321Z,1006.2
2017-04-05T11:31:08.365Z,1006.18
2017-04-05T11:32:08.408Z,1006.1
2017-04-05T11:33:08.450Z,1006.15
2017-04-05T11:34:08.490Z,1006.15
2017-04-05T11:35:08.535Z,1006.13
2017-04-05T11:36:08.576Z,1006.19
2017-04-05T11:37:08.620Z,1006.13
2017-04-05T11:38:08.662Z,1006.09
2017-04-05T11:39:08.707Z,1006.1
2017-04-05T11:40:08.746Z,1006.05
2017-04-05T11:41:08.788Z,1006.09
2017-04-05T11:42:08.832Z,1006.11
2017-04-05T11:43:08.874Z,1006.03
2017-04-05T11:44:09.354Z,1006.06
2017-04-05T11:45:09.688Z,1006.07
2017-04-05T11:46:09.000Z,1006.07
2017-04-05T11:47:09.040Z,1006.03
2017-04-05T11:48:09.083Z,1006.04
2017-04-05T11:49:09.126Z,1005.99
2017-04-05T11:50:09.176Z,1006.03
2017-04-05T11:51:09.211Z,1005.98
2017-04-05T11:52:09.652Z,1005.99
2017-04-05T11:53:09.291Z,1005.95
2017-04-05T11:54:09.335Z,1005.97
2017-04-05T11:55:09.374Z,1005.86
2017-04-05T11:56:09.414Z,1005.89
2017-04-05T11:57:09.457Z,1005.9
2017-04-05T11:58:09.500Z,1005.9
2017-04-05T11:59:09.537Z,1005.86
2017-04-05T12:00:09.579Z,1005.84
2017-04-05T12:01:09.621Z,1005.87
2017-04-05T12:02:09.662Z,1005.88
2017-04-05T12:03:09.702Z,1005.87
2017-04-05T12:04:09.740Z,1005.85
2017-04-05T12:05:09.783Z,1005.79
2017-04-05T12:06:09.821Z,1005.8
2017-04-05T12:07:09.863Z,1005.78
2017-04-05T12:08:09.911Z,1005.74
2017-04-05T12:09:09.942Z,1005.83